sensor_id;sensor_type;location;lat;lon;timestamp;P1;durP1;ratioP1;P2;durP2;ratioP2
75614;SDS011;64199;48.578;-4.520;2022-12-07T00:01:25;1.77;;;0.90;;
75614;SDS011;64199;48.578;-4.520;2022-12-07T00:03:53;1.20;;;1.10;;
75614;SDS011;64199;48.578;-4.520;2022-12-07T00:06:22;1.00;;;0.90;;
75614;SDS011;64199;48.578;-4.520;2022-12-07T00:08:48;1.33;;;0.90;;
75614;SDS011;64199;48.578;-4.520;2022-12-07T00:11:15;1.52;;;1.00;;
75614;SDS011;64199;48.578;-4.520;2022-12-07T00:13:43;0.77;;;0.77;;
75614;SDS011;64199;48.578;-4.520;2022-12-07T00:16:14;0.80;;;0.80;;
75614;SDS011;64199;48.578;-4.520;2022-12-07T00:18:41;1.23;;;1.02;;
75614;SDS011;64199;48.578;-4.520;2022-12-07T00:21:09;0.80;;;0.77;;
75614;SDS011;64199;48.578;-4.520;2022-12-07T00:23:36;0.95;;;0.88;;
75614;SDS011;64199;48.578;-4.520;2022-12-07T00:28:33;0.93;;;0.93;;
75614;SDS011;64199;48.578;-4.520;2022-12-07T00:31:09;0.90;;;0.90;;
75614;SDS011;64199;48.578;-4.520;2022-12-07T00:33:37;0.85;;;0.85;;
75614;SDS011;64199;48.578;-4.520;2022-12-07T00:36:04;0.88;;;0.88;;
75614;SDS011;64199;48.578;-4.520;2022-12-07T00:38:33;1.08;;;1.08;;
75614;SDS011;64199;48.578;-4.520;2022-12-07T00:41:01;1.10;;;1.00;;
75614;SDS011;64199;48.578;-4.520;2022-12-07T00:43:29;0.90;;;0.77;;
75614;SDS011;64199;48.578;-4.520;2022-12-07T00:45:55;1.33;;;0.90;;
75614;SDS011;64199;48.578;-4.520;2022-12-07T00:48:21;1.15;;;0.95;;
75614;SDS011;64199;48.578;-4.520;2022-12-07T00:50:47;1.55;;;0.85;;
75614;SDS011;64199;48.578;-4.520;2022-12-07T00:53:14;1.00;;;1.00;;
75614;SDS011;64199;48.578;-4.520;2022-12-07T00:55:41;2.35;;;0.90;;
75614;SDS011;64199;48.578;-4.520;2022-12-07T00:58:08;0.80;;;0.80;;
75614;SDS011;64199;48.578;-4.520;2022-12-07T01:00:38;1.00;;;0.93;;
75614;SDS011;64199;48.578;-4.520;2022-12-07T01:03:06;1.42;;;0.80;;
75614;SDS011;64199;48.578;-4.520;2022-12-07T01:05:33;1.47;;;1.17;;
75614;SDS011;64199;48.578;-4.520;2022-12-07T01:08:00;0.90;;;0.90;;
75614;SDS011;64199;48.578;-4.520;2022-12-07T01:10:26;0.90;;;0.90;;
75614;SDS011;64199;48.578;-4.520;2022-12-07T01:12:53;2.97;;;0.90;;
75614;SDS011;64199;48.578;-4.520;2022-12-07T01:15:19;2.65;;;0.82;;
75614;SDS011;64199;48.578;-4.520;2022-12-07T01:17:45;3.17;;;1.00;;
75614;SDS011;64199;48.578;-4.520;2022-12-07T01:20:11;0.80;;;0.80;;
75614;SDS011;64199;48.578;-4.520;2022-12-07T01:22:38;1.95;;;0.90;;
75614;SDS011;64199;48.578;-4.520;2022-12-07T01:25:23;0.70;;;0.70;;
75614;SDS011;64199;48.578;-4.520;2022-12-07T01:27:49;1.00;;;0.93;;
75614;SDS011;64199;48.578;-4.520;2022-12-07T01:30:15;0.77;;;0.77;;
75614;SDS011;64199;48.578;-4.520;2022-12-07T01:32:40;0.95;;;0.90;;
75614;SDS011;64199;48.578;-4.520;2022-12-07T01:35:07;0.98;;;0.98;;
75614;SDS011;64199;48.578;-4.520;2022-12-07T01:37:36;0.95;;;0.88;;
75614;SDS011;64199;48.578;-4.520;2022-12-07T01:40:03;1.08;;;1.00;;
75614;SDS011;64199;48.578;-4.520;2022-12-07T01:48:00;0.80;;;0.80;;
75614;SDS011;64199;48.578;-4.520;2022-12-07T01:50:27;1.05;;;0.90;;
75614;SDS011;64199;48.578;-4.520;2022-12-07T01:52:56;0.77;;;0.77;;
75614;SDS011;64199;48.578;-4.520;2022-12-07T01:55:25;0.82;;;0.82;;
75614;SDS011;64199;48.578;-4.520;2022-12-07T01:57:52;0.75;;;0.75;;
75614;SDS011;64199;48.578;-4.520;2022-12-07T02:00:19;0.80;;;0.80;;
75614;SDS011;64199;48.578;-4.520;2022-12-07T02:05:35;0.80;;;0.80;;
75614;SDS011;64199;48.578;-4.520;2022-12-07T02:08:03;0.85;;;0.85;;
75614;SDS011;64199;48.578;-4.520;2022-12-07T02:10:30;1.40;;;1.10;;
75614;SDS011;64199;48.578;-4.520;2022-12-07T02:21:12;0.90;;;0.90;;
75614;SDS011;64199;48.578;-4.520;2022-12-07T02:26:47;0.73;;;0.70;;
75614;SDS011;64199;48.578;-4.520;2022-12-07T02:29:49;0.82;;;0.82;;
75614;SDS011;64199;48.578;-4.520;2022-12-07T02:35:30;1.00;;;0.90;;
75614;SDS011;64199;48.578;-4.520;2022-12-07T02:40:44;0.90;;;0.90;;
75614;SDS011;64199;48.578;-4.520;2022-12-07T02:43:25;0.60;;;0.60;;
75614;SDS011;64199;48.578;-4.520;2022-12-07T02:46:08;0.93;;;0.93;;
75614;SDS011;64199;48.578;-4.520;2022-12-07T02:48:41;0.80;;;0.80;;
75614;SDS011;64199;48.578;-4.520;2022-12-07T02:51:08;0.93;;;0.80;;
75614;SDS011;64199;48.578;-4.520;2022-12-07T02:53:38;2.05;;;1.08;;
75614;SDS011;64199;48.578;-4.520;2022-12-07T02:59:00;0.80;;;0.80;;
75614;SDS011;64199;48.578;-4.520;2022-12-07T03:07:00;0.77;;;0.77;;
75614;SDS011;64199;48.578;-4.520;2022-12-07T03:09:36;0.93;;;0.93;;
75614;SDS011;64199;48.578;-4.520;2022-12-07T03:12:12;1.00;;;0.90;;
75614;SDS011;64199;48.578;-4.520;2022-12-07T03:14:55;0.80;;;0.80;;
75614;SDS011;64199;48.578;-4.520;2022-12-07T03:17:53;2.22;;;1.00;;
75614;SDS011;64199;48.578;-4.520;2022-12-07T03:20:22;0.85;;;0.85;;
75614;SDS011;64199;48.578;-4.520;2022-12-07T03:22:50;1.00;;;1.00;;
75614;SDS011;64199;48.578;-4.520;2022-12-07T03:25:18;1.65;;;1.00;;
75614;SDS011;64199;48.578;-4.520;2022-12-07T03:27:53;0.80;;;0.80;;
75614;SDS011;64199;48.578;-4.520;2022-12-07T03:30:33;1.02;;;0.90;;
75614;SDS011;64199;48.578;-4.520;2022-12-07T03:36:23;0.70;;;0.70;;
75614;SDS011;64199;48.578;-4.520;2022-12-07T03:41:33;0.70;;;0.70;;
75614;SDS011;64199;48.578;-4.520;2022-12-07T03:44:02;0.95;;;0.90;;
75614;SDS011;64199;48.578;-4.520;2022-12-07T03:54:34;0.65;;;0.65;;
75614;SDS011;64199;48.578;-4.520;2022-12-07T03:57:05;0.80;;;0.80;;
75614;SDS011;64199;48.578;-4.520;2022-12-07T03:59:33;1.00;;;0.90;;
75614;SDS011;64199;48.578;-4.520;2022-12-07T04:02:03;0.70;;;0.70;;
75614;SDS011;64199;48.578;-4.520;2022-12-07T04:04:30;0.70;;;0.70;;
75614;SDS011;64199;48.578;-4.520;2022-12-07T04:06:57;0.70;;;0.70;;
75614;SDS011;64199;48.578;-4.520;2022-12-07T04:09:24;0.80;;;0.80;;
75614;SDS011;64199;48.578;-4.520;2022-12-07T04:11:50;0.52;;;0.52;;
75614;SDS011;64199;48.578;-4.520;2022-12-07T04:14:16;0.70;;;0.70;;
75614;SDS011;64199;48.578;-4.520;2022-12-07T04:16:46;0.60;;;0.60;;
75614;SDS011;64199;48.578;-4.520;2022-12-07T04:19:13;0.80;;;0.80;;
75614;SDS011;64199;48.578;-4.520;2022-12-07T04:21:40;0.90;;;0.80;;
75614;SDS011;64199;48.578;-4.520;2022-12-07T04:24:06;0.70;;;0.70;;
75614;SDS011;64199;48.578;-4.520;2022-12-07T04:26:32;0.82;;;0.82;;
75614;SDS011;64199;48.578;-4.520;2022-12-07T04:28:58;0.82;;;0.82;;
75614;SDS011;64199;48.578;-4.520;2022-12-07T04:31:24;0.60;;;0.60;;
75614;SDS011;64199;48.578;-4.520;2022-12-07T04:33:50;0.65;;;0.65;;
75614;SDS011;64199;48.578;-4.520;2022-12-07T04:36:16;0.73;;;0.73;;
75614;SDS011;64199;48.578;-4.520;2022-12-07T04:38:42;0.80;;;0.80;;
75614;SDS011;64199;48.578;-4.520;2022-12-07T04:41:08;0.80;;;0.80;;
75614;SDS011;64199;48.578;-4.520;2022-12-07T04:43:34;0.60;;;0.60;;
75614;SDS011;64199;48.578;-4.520;2022-12-07T04:46:00;0.70;;;0.70;;
75614;SDS011;64199;48.578;-4.520;2022-12-07T04:48:27;0.75;;;0.75;;
75614;SDS011;64199;48.578;-4.520;2022-12-07T04:50:53;0.80;;;0.80;;
75614;SDS011;64199;48.578;-4.520;2022-12-07T04:53:19;0.60;;;0.60;;
75614;SDS011;64199;48.578;-4.520;2022-12-07T04:55:45;0.70;;;0.70;;
75614;SDS011;64199;48.578;-4.520;2022-12-07T04:58:12;1.75;;;0.80;;
75614;SDS011;64199;48.578;-4.520;2022-12-07T05:00:38;0.75;;;0.70;;
75614;SDS011;64199;48.578;-4.520;2022-12-07T05:03:05;1.02;;;0.80;;
75614;SDS011;64199;48.578;-4.520;2022-12-07T05:05:30;0.60;;;0.60;;
75614;SDS011;64199;48.578;-4.520;2022-12-07T05:07:56;1.15;;;0.80;;
75614;SDS011;64199;48.578;-4.520;2022-12-07T05:10:22;1.35;;;0.70;;
75614;SDS011;64199;48.578;-4.520;2022-12-07T05:12:48;1.17;;;0.55;;
75614;SDS011;64199;48.578;-4.520;2022-12-07T05:15:14;0.68;;;0.65;;
75614;SDS011;64199;48.578;-4.520;2022-12-07T05:17:40;0.77;;;0.60;;
75614;SDS011;64199;48.578;-4.520;2022-12-07T05:20:07;1.25;;;0.52;;
75614;SDS011;64199;48.578;-4.520;2022-12-07T05:22:34;0.60;;;0.60;;
75614;SDS011;64199;48.578;-4.520;2022-12-07T05:25:00;0.60;;;0.60;;
75614;SDS011;64199;48.578;-4.520;2022-12-07T05:27:25;1.08;;;0.60;;
75614;SDS011;64199;48.578;-4.520;2022-12-07T05:29:51;0.55;;;0.55;;
75614;SDS011;64199;48.578;-4.520;2022-12-07T05:32:17;1.50;;;0.65;;
75614;SDS011;64199;48.578;-4.520;2022-12-07T05:34:43;0.80;;;0.80;;
75614;SDS011;64199;48.578;-4.520;2022-12-07T05:37:09;1.33;;;0.65;;
75614;SDS011;64199;48.578;-4.520;2022-12-07T05:39:35;0.65;;;0.65;;
75614;SDS011;64199;48.578;-4.520;2022-12-07T05:42:03;1.17;;;0.70;;
75614;SDS011;64199;48.578;-4.520;2022-12-07T05:44:38;0.90;;;0.90;;
75614;SDS011;64199;48.578;-4.520;2022-12-07T05:47:09;0.70;;;0.70;;
75614;SDS011;64199;48.578;-4.520;2022-12-07T05:49:35;0.63;;;0.63;;
75614;SDS011;64199;48.578;-4.520;2022-12-07T05:52:01;0.60;;;0.60;;
75614;SDS011;64199;48.578;-4.520;2022-12-07T05:54:28;0.80;;;0.80;;
75614;SDS011;64199;48.578;-4.520;2022-12-07T05:56:54;0.70;;;0.70;;
75614;SDS011;64199;48.578;-4.520;2022-12-07T05:59:20;0.85;;;0.82;;
75614;SDS011;64199;48.578;-4.520;2022-12-07T06:01:50;0.60;;;0.60;;
75614;SDS011;64199;48.578;-4.520;2022-12-07T06:04:24;0.70;;;0.70;;
75614;SDS011;64199;48.578;-4.520;2022-12-07T06:09:18;1.08;;;0.98;;
75614;SDS011;64199;48.578;-4.520;2022-12-07T06:11:46;0.70;;;0.70;;
75614;SDS011;64199;48.578;-4.520;2022-12-07T06:14:30;0.70;;;0.70;;
75614;SDS011;64199;48.578;-4.520;2022-12-07T06:16:57;1.08;;;0.80;;
75614;SDS011;64199;48.578;-4.520;2022-12-07T06:19:23;0.80;;;0.80;;
75614;SDS011;64199;48.578;-4.520;2022-12-07T06:21:49;0.60;;;0.60;;
75614;SDS011;64199;48.578;-4.520;2022-12-07T06:24:15;0.90;;;0.80;;
75614;SDS011;64199;48.578;-4.520;2022-12-07T06:26:42;0.98;;;0.98;;
75614;SDS011;64199;48.578;-4.520;2022-12-07T06:29:08;1.00;;;1.00;;
75614;SDS011;64199;48.578;-4.520;2022-12-07T06:31:34;0.93;;;0.80;;
75614;SDS011;64199;48.578;-4.520;2022-12-07T06:34:01;0.70;;;0.70;;
75614;SDS011;64199;48.578;-4.520;2022-12-07T06:36:29;1.08;;;0.90;;
75614;SDS011;64199;48.578;-4.520;2022-12-07T06:38:56;1.00;;;0.80;;
75614;SDS011;64199;48.578;-4.520;2022-12-07T06:41:22;0.93;;;0.90;;
75614;SDS011;64199;48.578;-4.520;2022-12-07T06:43:48;1.00;;;1.00;;
75614;SDS011;64199;48.578;-4.520;2022-12-07T06:46:14;1.00;;;1.00;;
75614;SDS011;64199;48.578;-4.520;2022-12-07T06:48:41;0.88;;;0.88;;
75614;SDS011;64199;48.578;-4.520;2022-12-07T06:51:07;0.70;;;0.70;;
75614;SDS011;64199;48.578;-4.520;2022-12-07T06:53:34;0.70;;;0.70;;
75614;SDS011;64199;48.578;-4.520;2022-12-07T06:56:00;1.00;;;0.90;;
75614;SDS011;64199;48.578;-4.520;2022-12-07T06:58:26;0.70;;;0.70;;
75614;SDS011;64199;48.578;-4.520;2022-12-07T07:00:52;0.80;;;0.80;;
75614;SDS011;64199;48.578;-4.520;2022-12-07T07:03:18;0.80;;;0.80;;
75614;SDS011;64199;48.578;-4.520;2022-12-07T07:05:44;0.68;;;0.68;;
75614;SDS011;64199;48.578;-4.520;2022-12-07T07:08:10;0.73;;;0.73;;
75614;SDS011;64199;48.578;-4.520;2022-12-07T07:10:37;0.70;;;0.70;;
75614;SDS011;64199;48.578;-4.520;2022-12-07T07:13:03;0.70;;;0.70;;
75614;SDS011;64199;48.578;-4.520;2022-12-07T07:15:30;2.38;;;0.90;;
75614;SDS011;64199;48.578;-4.520;2022-12-07T07:17:56;0.70;;;0.70;;
75614;SDS011;64199;48.578;-4.520;2022-12-07T07:20:22;0.75;;;0.75;;
75614;SDS011;64199;48.578;-4.520;2022-12-07T07:22:48;0.70;;;0.70;;
75614;SDS011;64199;48.578;-4.520;2022-12-07T07:25:14;3.35;;;0.80;;
75614;SDS011;64199;48.578;-4.520;2022-12-07T07:27:41;0.70;;;0.65;;
75614;SDS011;64199;48.578;-4.520;2022-12-07T07:30:07;0.80;;;0.80;;
75614;SDS011;64199;48.578;-4.520;2022-12-07T07:32:33;1.27;;;0.85;;
75614;SDS011;64199;48.578;-4.520;2022-12-07T07:34:59;1.65;;;0.95;;
75614;SDS011;64199;48.578;-4.520;2022-12-07T07:37:25;0.85;;;0.85;;
75614;SDS011;64199;48.578;-4.520;2022-12-07T07:39:51;0.95;;;0.80;;
75614;SDS011;64199;48.578;-4.520;2022-12-07T07:42:17;0.75;;;0.75;;
75614;SDS011;64199;48.578;-4.520;2022-12-07T07:44:43;0.80;;;0.80;;
75614;SDS011;64199;48.578;-4.520;2022-12-07T07:47:09;0.70;;;0.70;;
75614;SDS011;64199;48.578;-4.520;2022-12-07T07:49:35;1.48;;;0.82;;
75614;SDS011;64199;48.578;-4.520;2022-12-07T07:52:00;1.70;;;0.80;;
75614;SDS011;64199;48.578;-4.520;2022-12-07T07:54:26;0.82;;;0.77;;
75614;SDS011;64199;48.578;-4.520;2022-12-07T07:56:52;0.80;;;0.70;;
75614;SDS011;64199;48.578;-4.520;2022-12-07T07:59:18;0.60;;;0.60;;
75614;SDS011;64199;48.578;-4.520;2022-12-07T08:01:44;0.63;;;0.63;;
75614;SDS011;64199;48.578;-4.520;2022-12-07T08:04:10;0.93;;;0.80;;
75614;SDS011;64199;48.578;-4.520;2022-12-07T08:06:36;0.60;;;0.60;;
75614;SDS011;64199;48.578;-4.520;2022-12-07T08:09:02;1.25;;;0.68;;
75614;SDS011;64199;48.578;-4.520;2022-12-07T08:11:30;2.67;;;0.63;;
75614;SDS011;64199;48.578;-4.520;2022-12-07T08:13:56;1.17;;;0.70;;
75614;SDS011;64199;48.578;-4.520;2022-12-07T08:16:22;1.00;;;0.90;;
75614;SDS011;64199;48.578;-4.520;2022-12-07T08:18:47;0.90;;;0.70;;
75614;SDS011;64199;48.578;-4.520;2022-12-07T08:21:14;2.05;;;0.73;;
75614;SDS011;64199;48.578;-4.520;2022-12-07T08:23:40;0.60;;;0.60;;
75614;SDS011;64199;48.578;-4.520;2022-12-07T08:26:07;0.60;;;0.60;;
75614;SDS011;64199;48.578;-4.520;2022-12-07T08:28:35;0.60;;;0.60;;
75614;SDS011;64199;48.578;-4.520;2022-12-07T08:31:02;1.00;;;0.68;;
75614;SDS011;64199;48.578;-4.520;2022-12-07T08:33:30;0.60;;;0.60;;
75614;SDS011;64199;48.578;-4.520;2022-12-07T08:36:00;4.28;;;0.90;;
75614;SDS011;64199;48.578;-4.520;2022-12-07T08:38:26;1.90;;;1.10;;
75614;SDS011;64199;48.578;-4.520;2022-12-07T08:40:56;0.80;;;0.80;;
75614;SDS011;64199;48.578;-4.520;2022-12-07T08:43:22;1.10;;;0.98;;
75614;SDS011;64199;48.578;-4.520;2022-12-07T08:45:51;2.95;;;0.80;;
75614;SDS011;64199;48.578;-4.520;2022-12-07T08:48:34;0.85;;;0.65;;
75614;SDS011;64199;48.578;-4.520;2022-12-07T08:51:04;1.38;;;0.90;;
75614;SDS011;64199;48.578;-4.520;2022-12-07T08:53:30;0.70;;;0.70;;
75614;SDS011;64199;48.578;-4.520;2022-12-07T08:55:56;1.42;;;0.70;;
75614;SDS011;64199;48.578;-4.520;2022-12-07T08:58:23;2.90;;;0.80;;
75614;SDS011;64199;48.578;-4.520;2022-12-07T09:00:49;0.88;;;0.82;;
75614;SDS011;64199;48.578;-4.520;2022-12-07T09:03:15;1.23;;;0.60;;
75614;SDS011;64199;48.578;-4.520;2022-12-07T09:05:41;1.10;;;0.68;;
75614;SDS011;64199;48.578;-4.520;2022-12-07T09:08:07;0.60;;;0.60;;
75614;SDS011;64199;48.578;-4.520;2022-12-07T09:10:34;0.70;;;0.70;;
75614;SDS011;64199;48.578;-4.520;2022-12-07T09:12:59;0.65;;;0.65;;
75614;SDS011;64199;48.578;-4.520;2022-12-07T09:15:26;1.27;;;0.70;;
75614;SDS011;64199;48.578;-4.520;2022-12-07T09:17:53;0.73;;;0.60;;
75614;SDS011;64199;48.578;-4.520;2022-12-07T09:20:19;0.70;;;0.70;;
75614;SDS011;64199;48.578;-4.520;2022-12-07T09:22:45;0.70;;;0.70;;
75614;SDS011;64199;48.578;-4.520;2022-12-07T09:25:11;0.60;;;0.60;;
75614;SDS011;64199;48.578;-4.520;2022-12-07T09:27:37;1.02;;;0.70;;
75614;SDS011;64199;48.578;-4.520;2022-12-07T09:30:03;1.70;;;0.80;;
75614;SDS011;64199;48.578;-4.520;2022-12-07T09:32:30;0.60;;;0.60;;
75614;SDS011;64199;48.578;-4.520;2022-12-07T09:34:56;0.93;;;0.65;;
75614;SDS011;64199;48.578;-4.520;2022-12-07T09:37:22;0.47;;;0.47;;
75614;SDS011;64199;48.578;-4.520;2022-12-07T09:39:48;0.70;;;0.70;;
75614;SDS011;64199;48.578;-4.520;2022-12-07T09:42:25;0.90;;;0.70;;
75614;SDS011;64199;48.578;-4.520;2022-12-07T09:44:59;0.70;;;0.70;;
75614;SDS011;64199;48.578;-4.520;2022-12-07T09:47:26;0.98;;;0.73;;
75614;SDS011;64199;48.578;-4.520;2022-12-07T09:50:00;0.60;;;0.50;;
75614;SDS011;64199;48.578;-4.520;2022-12-07T09:52:36;0.50;;;0.50;;
75614;SDS011;64199;48.578;-4.520;2022-12-07T09:55:02;0.80;;;0.80;;
75614;SDS011;64199;48.578;-4.520;2022-12-07T09:57:30;0.40;;;0.40;;
75614;SDS011;64199;48.578;-4.520;2022-12-07T10:00:04;0.70;;;0.70;;
75614;SDS011;64199;48.578;-4.520;2022-12-07T10:02:41;0.63;;;0.45;;
75614;SDS011;64199;48.578;-4.520;2022-12-07T10:05:17;0.90;;;0.50;;
75614;SDS011;64199;48.578;-4.520;2022-12-07T10:07:47;1.50;;;0.70;;
75614;SDS011;64199;48.578;-4.520;2022-12-07T10:10:17;0.50;;;0.50;;
75614;SDS011;64199;48.578;-4.520;2022-12-07T10:12:57;0.60;;;0.60;;
75614;SDS011;64199;48.578;-4.520;2022-12-07T10:15:46;1.13;;;0.50;;
75614;SDS011;64199;48.578;-4.520;2022-12-07T10:18:39;1.08;;;0.70;;
75614;SDS011;64199;48.578;-4.520;2022-12-07T10:21:16;0.80;;;0.77;;
75614;SDS011;64199;48.578;-4.520;2022-12-07T10:31:40;0.75;;;0.60;;
75614;SDS011;64199;48.578;-4.520;2022-12-07T10:34:15;0.65;;;0.65;;
75614;SDS011;64199;48.578;-4.520;2022-12-07T10:37:13;0.82;;;0.60;;
75614;SDS011;64199;48.578;-4.520;2022-12-07T10:44:46;1.30;;;0.70;;
75614;SDS011;64199;48.578;-4.520;2022-12-07T10:53:28;0.73;;;0.70;;
75614;SDS011;64199;48.578;-4.520;2022-12-07T11:09:51;1.17;;;0.60;;
75614;SDS011;64199;48.578;-4.520;2022-12-07T11:17:56;0.75;;;0.75;;
75614;SDS011;64199;48.578;-4.520;2022-12-07T11:20:49;0.77;;;0.60;;
75614;SDS011;64199;48.578;-4.520;2022-12-07T11:26:25;1.60;;;0.80;;
75614;SDS011;64199;48.578;-4.520;2022-12-07T11:32:02;3.30;;;0.60;;
75614;SDS011;64199;48.578;-4.520;2022-12-07T11:37:38;0.80;;;0.80;;
75614;SDS011;64199;48.578;-4.520;2022-12-07T11:42:42;0.68;;;0.50;;
75614;SDS011;64199;48.578;-4.520;2022-12-07T11:45:15;2.50;;;0.60;;
75614;SDS011;64199;48.578;-4.520;2022-12-07T11:47:48;3.13;;;0.50;;
75614;SDS011;64199;48.578;-4.520;2022-12-07T11:58:35;0.55;;;0.55;;
75614;SDS011;64199;48.578;-4.520;2022-12-07T12:04:02;3.17;;;0.80;;
75614;SDS011;64199;48.578;-4.520;2022-12-07T12:06:41;2.25;;;0.50;;
75614;SDS011;64199;48.578;-4.520;2022-12-07T12:11:48;2.30;;;0.50;;
75614;SDS011;64199;48.578;-4.520;2022-12-07T12:17:03;0.40;;;0.40;;
75614;SDS011;64199;48.578;-4.520;2022-12-07T12:19:58;0.90;;;0.60;;
75614;SDS011;64199;48.578;-4.520;2022-12-07T12:25:25;1.20;;;0.68;;
75614;SDS011;64199;48.578;-4.520;2022-12-07T12:27:59;0.73;;;0.73;;
75614;SDS011;64199;48.578;-4.520;2022-12-07T12:33:04;1.17;;;0.70;;
75614;SDS011;64199;48.578;-4.520;2022-12-07T12:35:38;0.88;;;0.60;;
75614;SDS011;64199;48.578;-4.520;2022-12-07T12:40:58;0.50;;;0.50;;
75614;SDS011;64199;48.578;-4.520;2022-12-07T12:43:42;2.77;;;0.70;;
75614;SDS011;64199;48.578;-4.520;2022-12-07T12:50:18;0.50;;;0.50;;
75614;SDS011;64199;48.578;-4.520;2022-12-07T12:51:55;0.32;;;0.30;;
75614;SDS011;64199;48.578;-4.520;2022-12-07T12:54:32;0.70;;;0.50;;
75614;SDS011;64199;48.578;-4.520;2022-12-07T13:23:36;1.35;;;0.60;;
75614;SDS011;64199;48.578;-4.520;2022-12-07T13:28:49;0.60;;;0.50;;
75614;SDS011;64199;48.578;-4.520;2022-12-07T13:31:38;0.98;;;0.50;;
75614;SDS011;64199;48.578;-4.520;2022-12-07T13:36:55;0.60;;;0.60;;
75614;SDS011;64199;48.578;-4.520;2022-12-07T13:39:23;0.52;;;0.52;;
75614;SDS011;64199;48.578;-4.520;2022-12-07T13:44:22;0.52;;;0.52;;
75614;SDS011;64199;48.578;-4.520;2022-12-07T13:49:22;0.50;;;0.50;;
75614;SDS011;64199;48.578;-4.520;2022-12-07T13:54:45;0.60;;;0.60;;
75614;SDS011;64199;48.578;-4.520;2022-12-07T13:57:11;2.80;;;0.40;;
75614;SDS011;64199;48.578;-4.520;2022-12-07T13:59:37;0.70;;;0.70;;
75614;SDS011;64199;48.578;-4.520;2022-12-07T14:02:26;1.48;;;0.60;;
75614;SDS011;64199;48.578;-4.520;2022-12-07T14:05:12;0.70;;;0.70;;
75614;SDS011;64199;48.578;-4.520;2022-12-07T14:10:29;1.35;;;0.80;;
75614;SDS011;64199;48.578;-4.520;2022-12-07T14:12:57;1.42;;;0.77;;
75614;SDS011;64199;48.578;-4.520;2022-12-07T14:15:28;2.83;;;0.75;;
75614;SDS011;64199;48.578;-4.520;2022-12-07T14:18:00;1.17;;;0.70;;
75614;SDS011;64199;48.578;-4.520;2022-12-07T14:23:05;3.88;;;1.00;;
75614;SDS011;64199;48.578;-4.520;2022-12-07T14:25:49;2.58;;;0.88;;
75614;SDS011;64199;48.578;-4.520;2022-12-07T14:28:32;1.92;;;0.95;;
75614;SDS011;64199;48.578;-4.520;2022-12-07T14:31:00;5.68;;;1.05;;
75614;SDS011;64199;48.578;-4.520;2022-12-07T14:33:26;6.13;;;1.20;;
75614;SDS011;64199;48.578;-4.520;2022-12-07T14:35:53;1.73;;;0.70;;
75614;SDS011;64199;48.578;-4.520;2022-12-07T14:38:23;9.57;;;0.90;;
75614;SDS011;64199;48.578;-4.520;2022-12-07T14:40:50;5.97;;;1.55;;
75614;SDS011;64199;48.578;-4.520;2022-12-07T14:43:18;9.05;;;1.13;;
75614;SDS011;64199;48.578;-4.520;2022-12-07T14:45:45;10.52;;;1.10;;
75614;SDS011;64199;48.578;-4.520;2022-12-07T14:48:11;10.15;;;1.15;;
75614;SDS011;64199;48.578;-4.520;2022-12-07T14:50:43;5.23;;;0.97;;
75614;SDS011;64199;48.578;-4.520;2022-12-07T14:53:15;9.90;;;1.10;;
75614;SDS011;64199;48.578;-4.520;2022-12-07T14:55:43;4.45;;;0.80;;
75614;SDS011;64199;48.578;-4.520;2022-12-07T14:58:13;9.30;;;0.90;;
75614;SDS011;64199;48.578;-4.520;2022-12-07T15:00:40;6.03;;;1.00;;
75614;SDS011;64199;48.578;-4.520;2022-12-07T15:03:06;11.68;;;1.23;;
75614;SDS011;64199;48.578;-4.520;2022-12-07T15:05:32;4.43;;;0.80;;
75614;SDS011;64199;48.578;-4.520;2022-12-07T15:07:59;3.35;;;1.05;;
75614;SDS011;64199;48.578;-4.520;2022-12-07T15:10:27;4.68;;;0.93;;
75614;SDS011;64199;48.578;-4.520;2022-12-07T15:12:57;2.83;;;0.70;;
75614;SDS011;64199;48.578;-4.520;2022-12-07T15:15:43;2.95;;;0.85;;
75614;SDS011;64199;48.578;-4.520;2022-12-07T15:18:09;2.58;;;0.70;;
75614;SDS011;64199;48.578;-4.520;2022-12-07T15:20:35;2.53;;;0.80;;
75614;SDS011;64199;48.578;-4.520;2022-12-07T15:23:01;3.97;;;1.00;;
75614;SDS011;64199;48.578;-4.520;2022-12-07T15:25:26;3.25;;;0.90;;
75614;SDS011;64199;48.578;-4.520;2022-12-07T15:27:53;1.48;;;0.68;;
75614;SDS011;64199;48.578;-4.520;2022-12-07T15:30:20;1.40;;;0.75;;
75614;SDS011;64199;48.578;-4.520;2022-12-07T15:32:52;1.55;;;0.60;;
75614;SDS011;64199;48.578;-4.520;2022-12-07T15:35:19;1.02;;;0.63;;
75614;SDS011;64199;48.578;-4.520;2022-12-07T15:37:46;6.55;;;0.88;;
75614;SDS011;64199;48.578;-4.520;2022-12-07T15:40:12;3.75;;;1.00;;
75614;SDS011;64199;48.578;-4.520;2022-12-07T15:42:38;5.05;;;0.80;;
75614;SDS011;64199;48.578;-4.520;2022-12-07T15:45:08;7.57;;;1.42;;
75614;SDS011;64199;48.578;-4.520;2022-12-07T15:47:42;9.93;;;1.10;;
75614;SDS011;64199;48.578;-4.520;2022-12-07T15:50:13;4.32;;;0.90;;
75614;SDS011;64199;48.578;-4.520;2022-12-07T15:52:40;3.72;;;0.75;;
75614;SDS011;64199;48.578;-4.520;2022-12-07T15:55:06;0.95;;;0.65;;
75614;SDS011;64199;48.578;-4.520;2022-12-07T15:57:36;7.68;;;0.88;;
75614;SDS011;64199;48.578;-4.520;2022-12-07T16:00:07;3.45;;;0.77;;
75614;SDS011;64199;48.578;-4.520;2022-12-07T16:02:34;3.15;;;0.70;;
75614;SDS011;64199;48.578;-4.520;2022-12-07T16:05:01;2.28;;;0.52;;
75614;SDS011;64199;48.578;-4.520;2022-12-07T16:07:27;1.17;;;0.80;;
75614;SDS011;64199;48.578;-4.520;2022-12-07T16:09:53;3.17;;;0.60;;
75614;SDS011;64199;48.578;-4.520;2022-12-07T16:12:18;1.75;;;0.70;;
75614;SDS011;64199;48.578;-4.520;2022-12-07T16:14:44;4.18;;;0.70;;
75614;SDS011;64199;48.578;-4.520;2022-12-07T16:17:10;2.22;;;0.60;;
75614;SDS011;64199;48.578;-4.520;2022-12-07T16:19:36;1.35;;;0.70;;
75614;SDS011;64199;48.578;-4.520;2022-12-07T16:22:03;1.48;;;0.70;;
75614;SDS011;64199;48.578;-4.520;2022-12-07T16:24:30;1.38;;;0.55;;
75614;SDS011;64199;48.578;-4.520;2022-12-07T16:26:56;1.83;;;0.75;;
75614;SDS011;64199;48.578;-4.520;2022-12-07T16:29:22;1.85;;;0.40;;
75614;SDS011;64199;48.578;-4.520;2022-12-07T16:31:49;2.45;;;0.88;;
75614;SDS011;64199;48.578;-4.520;2022-12-07T16:34:16;2.65;;;0.57;;
75614;SDS011;64199;48.578;-4.520;2022-12-07T16:36:42;1.75;;;0.55;;
75614;SDS011;64199;48.578;-4.520;2022-12-07T16:39:08;0.82;;;0.40;;
75614;SDS011;64199;48.578;-4.520;2022-12-07T16:41:34;0.77;;;0.60;;
75614;SDS011;64199;48.578;-4.520;2022-12-07T16:44:02;3.20;;;0.60;;
75614;SDS011;64199;48.578;-4.520;2022-12-07T16:46:33;3.10;;;0.70;;
75614;SDS011;64199;48.578;-4.520;2022-12-07T16:49:00;1.95;;;0.50;;
75614;SDS011;64199;48.578;-4.520;2022-12-07T16:51:26;1.92;;;0.60;;
75614;SDS011;64199;48.578;-4.520;2022-12-07T16:53:52;3.03;;;0.80;;
75614;SDS011;64199;48.578;-4.520;2022-12-07T16:56:18;2.78;;;0.50;;
75614;SDS011;64199;48.578;-4.520;2022-12-07T16:58:44;1.55;;;0.73;;
75614;SDS011;64199;48.578;-4.520;2022-12-07T17:01:14;0.85;;;0.60;;
75614;SDS011;64199;48.578;-4.520;2022-12-07T17:03:44;2.05;;;0.70;;
75614;SDS011;64199;48.578;-4.520;2022-12-07T17:06:15;1.65;;;0.70;;
75614;SDS011;64199;48.578;-4.520;2022-12-07T17:08:41;5.55;;;0.85;;
75614;SDS011;64199;48.578;-4.520;2022-12-07T17:11:26;1.13;;;0.80;;
75614;SDS011;64199;48.578;-4.520;2022-12-07T17:13:54;1.08;;;0.75;;
75614;SDS011;64199;48.578;-4.520;2022-12-07T17:16:38;2.00;;;0.60;;
75614;SDS011;64199;48.578;-4.520;2022-12-07T17:19:09;0.75;;;0.60;;
75614;SDS011;64199;48.578;-4.520;2022-12-07T17:21:36;0.60;;;0.60;;
75614;SDS011;64199;48.578;-4.520;2022-12-07T17:24:03;1.05;;;0.82;;
75614;SDS011;64199;48.578;-4.520;2022-12-07T17:26:31;1.35;;;0.80;;
75614;SDS011;64199;48.578;-4.520;2022-12-07T17:28:57;2.13;;;1.00;;
75614;SDS011;64199;48.578;-4.520;2022-12-07T17:31:24;2.22;;;0.70;;
75614;SDS011;64199;48.578;-4.520;2022-12-07T17:33:50;1.15;;;0.70;;
75614;SDS011;64199;48.578;-4.520;2022-12-07T17:36:23;2.83;;;0.60;;
75614;SDS011;64199;48.578;-4.520;2022-12-07T17:38:51;1.88;;;0.85;;
75614;SDS011;64199;48.578;-4.520;2022-12-07T17:41:19;0.80;;;0.63;;